Albardon, Argentina
Current Conditions -  °F | °C
As of 9:00 PM on Thursday 18 Dec 2014 (Local Time) from SAME Reporting Station
Few Clouds Few Clouds  
Wind Chill: 30°   Ceiling: Unl
Heat Index: 30°   Visibility: 6mi
Dew Point: 10°   Wind: 9mph
Humidity: 29%   Direction: 360°N
Pressure: 29.74"   Gusts: NA
Location:  31.43°S, 68.53°W
Report Text: SAME 190000Z 36008KT 9999 FEW050TCU 30/10 Q1007
Loading
Personal Weather Stations






























Interactive Weather Map New forecast layout! Learn more

10-Day Weather Forecast

Advertisements
Track Severe Weather on mobile